createdAt,value
2023-01-17T00:00:45.749Z,0.70
2023-01-17T00:04:08.324Z,0.63
2023-01-17T00:07:32.190Z,0.52
2023-01-17T00:10:40.418Z,0.50
2023-01-17T00:13:44.529Z,0.70
2023-01-17T00:16:48.369Z,0.57
2023-01-17T00:20:10.788Z,0.50
2023-01-17T00:23:42.529Z,0.60
2023-01-17T00:27:05.424Z,0.50
2023-01-17T00:30:10.501Z,0.57
2023-01-17T00:33:14.312Z,0.52
2023-01-17T00:36:18.332Z,0.60
2023-01-17T00:39:22.147Z,0.45
2023-01-17T00:42:25.945Z,0.38
2023-01-17T00:45:48.657Z,0.30
2023-01-17T00:49:11.540Z,0.50
2023-01-17T00:52:34.020Z,0.60
2023-01-17T00:55:56.759Z,0.35
2023-01-17T00:59:19.485Z,0.40
2023-01-17T01:02:43.212Z,0.30
2023-01-17T01:09:28.681Z,0.20
2023-01-17T01:12:51.833Z,0.30
2023-01-17T01:16:14.212Z,0.30
2023-01-17T01:19:37.127Z,0.08
2023-01-17T01:23:00.157Z,0.20
2023-01-17T01:26:22.742Z,0.20
2023-01-17T01:29:45.912Z,0.20
2023-01-17T01:33:08.816Z,0.10
2023-01-17T01:36:13.315Z,0.20
2023-01-17T01:39:17.351Z,0.50
2023-01-17T01:42:21.308Z,0.20
2023-01-17T01:45:29.967Z,0.25
2023-01-17T01:48:38.001Z,0.20
2023-01-17T01:51:46.468Z,0.20
2023-01-17T01:54:56.029Z,0.20
2023-01-17T01:58:04.425Z,0.15
2023-01-17T02:01:09.442Z,0.30
2023-01-17T02:04:14.904Z,0.20
2023-01-17T02:07:41.632Z,0.20
2023-01-17T02:10:46.097Z,0.10
2023-01-17T02:13:50.053Z,0.30
2023-01-17T02:17:19.773Z,0.03
2023-01-17T02:20:52.735Z,0.20
2023-01-17T02:24:30.338Z,0.10
2023-01-17T02:28:04.057Z,0.20
2023-01-17T02:31:34.287Z,0.20
2023-01-17T02:34:54.137Z,0.20
2023-01-17T02:37:58.226Z,0.17
2023-01-17T02:41:16.222Z,0.10
2023-01-17T02:44:21.339Z,0.00
2023-01-17T02:47:27.752Z,0.10
2023-01-17T02:50:48.668Z,0.05
2023-01-17T02:54:04.816Z,0.10
2023-01-17T02:57:24.133Z,0.00
2023-01-17T03:00:53.220Z,0.03
2023-01-17T03:04:03.555Z,0.10
2023-01-17T03:07:16.411Z,0.17
2023-01-17T03:10:21.571Z,0.17
2023-01-17T03:13:25.623Z,0.20
2023-01-17T03:16:34.432Z,0.10
2023-01-17T03:19:38.196Z,0.20
2023-01-17T03:22:42.057Z,0.10
2023-01-17T03:25:46.154Z,0.20
2023-01-17T03:28:50.634Z,0.20
2023-01-17T03:31:54.645Z,0.20
2023-01-17T03:34:58.430Z,0.10
2023-01-17T03:38:02.119Z,0.10
2023-01-17T03:41:06.764Z,0.20
2023-01-17T03:44:10.606Z,0.20
2023-01-17T03:47:14.619Z,0.08
2023-01-17T03:50:18.892Z,0.03
2023-01-17T03:53:23.057Z,0.00
2023-01-17T03:56:27.004Z,0.10
2023-01-17T03:59:34.255Z,0.00
2023-01-17T04:02:38.509Z,0.30
2023-01-17T04:05:42.536Z,0.20
2023-01-17T04:08:46.811Z,0.20
2023-01-17T04:11:50.962Z,0.20
2023-01-17T04:14:54.913Z,0.22
2023-01-17T04:17:58.801Z,0.20
2023-01-17T04:21:02.954Z,0.10
2023-01-17T04:24:07.619Z,0.32
2023-01-17T04:27:14.200Z,0.40
2023-01-17T04:30:18.516Z,0.15
2023-01-17T04:33:22.506Z,0.20
2023-01-17T04:36:26.622Z,0.38
2023-01-17T04:39:30.686Z,0.40
2023-01-17T04:42:34.820Z,0.40
2023-01-17T04:45:38.810Z,0.40
2023-01-17T04:48:42.804Z,0.50
2023-01-17T04:51:46.743Z,0.35
2023-01-17T04:54:51.635Z,0.60
2023-01-17T04:57:56.080Z,3.63
2023-01-17T05:01:05.306Z,0.35
2023-01-17T05:04:09.526Z,0.50
2023-01-17T05:07:14.019Z,0.50
2023-01-17T05:10:17.972Z,0.60
2023-01-17T05:13:22.012Z,0.45
2023-01-17T05:16:26.138Z,0.50
2023-01-17T05:19:30.588Z,0.50
2023-01-17T05:22:34.392Z,0.60
2023-01-17T05:25:39.090Z,0.50
2023-01-17T05:28:43.360Z,0.80
2023-01-17T05:31:47.402Z,0.70
2023-01-17T05:34:51.395Z,0.50
2023-01-17T05:37:55.942Z,0.70
2023-01-17T05:41:04.969Z,0.70
2023-01-17T05:44:08.971Z,0.63
2023-01-17T05:47:13.190Z,0.60
2023-01-17T05:50:21.211Z,0.60
2023-01-17T05:53:25.085Z,0.70
2023-01-17T05:56:28.925Z,0.60
2023-01-17T05:59:37.498Z,0.80
2023-01-17T06:02:41.438Z,1.00
2023-01-17T06:05:46.176Z,0.90
2023-01-17T06:08:50.822Z,0.80
2023-01-17T06:11:55.279Z,0.70
2023-01-17T06:14:59.716Z,0.90
2023-01-17T06:18:11.731Z,0.70
2023-01-17T06:21:16.171Z,1.00
2023-01-17T06:24:20.357Z,1.33
2023-01-17T06:27:25.037Z,1.20
2023-01-17T06:30:28.979Z,0.90
2023-01-17T06:33:33.348Z,0.82
2023-01-17T06:36:37.674Z,0.90
2023-01-17T06:39:41.990Z,1.00
2023-01-17T06:42:46.143Z,1.13
2023-01-17T06:45:51.362Z,0.70
2023-01-17T06:48:55.869Z,0.70
2023-01-17T06:52:00.139Z,0.95
2023-01-17T06:55:04.560Z,0.73
2023-01-17T06:58:09.716Z,1.00
2023-01-17T07:01:14.160Z,0.90
2023-01-17T07:04:18.626Z,1.00
2023-01-17T07:07:23.138Z,0.80
2023-01-17T07:10:27.199Z,1.00
2023-01-17T07:13:36.443Z,1.00
2023-01-17T07:16:40.885Z,1.20
2023-01-17T07:19:44.900Z,1.00
2023-01-17T07:22:49.077Z,0.80
2023-01-17T07:25:57.706Z,0.82
2023-01-17T07:29:02.114Z,0.90
2023-01-17T07:32:08.873Z,1.30
2023-01-17T07:35:12.583Z,0.90
2023-01-17T07:38:18.430Z,0.85
2023-01-17T07:41:22.766Z,0.95
2023-01-17T07:44:26.758Z,1.10
2023-01-17T07:47:30.846Z,0.80
2023-01-17T07:50:35.135Z,0.85
2023-01-17T07:53:39.001Z,1.00
2023-01-17T07:56:47.004Z,0.90
2023-01-17T07:59:52.149Z,1.10
2023-01-17T08:03:01.206Z,1.20
2023-01-17T08:06:06.565Z,0.90
2023-01-17T08:09:10.735Z,1.10
2023-01-17T08:12:15.661Z,0.90
2023-01-17T08:15:20.742Z,1.00
2023-01-17T08:18:24.984Z,1.00
2023-01-17T08:21:28.932Z,1.10
2023-01-17T08:24:33.277Z,0.90
2023-01-17T08:27:37.387Z,1.00
2023-01-17T08:30:47.422Z,1.00
2023-01-17T08:33:54.061Z,1.10
2023-01-17T08:36:58.309Z,0.90
2023-01-17T08:40:04.000Z,0.80
2023-01-17T08:43:08.348Z,1.10
2023-01-17T08:46:12.463Z,1.00
2023-01-17T08:49:16.249Z,0.95
2023-01-17T08:52:20.398Z,1.00
2023-01-17T08:55:24.230Z,1.13
2023-01-17T08:58:30.671Z,1.10
2023-01-17T09:01:40.609Z,1.20
2023-01-17T09:04:45.787Z,1.17
2023-01-17T09:07:49.719Z,1.20
2023-01-17T09:10:53.716Z,1.13
2023-01-17T09:13:57.688Z,1.00
2023-01-17T09:17:02.101Z,1.23
2023-01-17T09:20:06.922Z,1.27
2023-01-17T09:23:10.859Z,1.20
2023-01-17T09:26:19.087Z,1.10
2023-01-17T09:29:22.833Z,1.00
2023-01-17T09:32:26.966Z,1.45
2023-01-17T09:35:31.419Z,1.10
2023-01-17T09:38:36.308Z,1.15
2023-01-17T09:41:54.614Z,1.00
2023-01-17T09:44:59.033Z,1.10
2023-01-17T09:48:09.765Z,0.90
2023-01-17T09:51:19.771Z,1.00
2023-01-17T09:54:27.544Z,0.80
2023-01-17T09:58:00.182Z,0.98
2023-01-17T10:01:35.838Z,0.93
2023-01-17T10:04:52.301Z,0.93
2023-01-17T10:08:14.250Z,1.17
2023-01-17T10:11:41.675Z,0.88
2023-01-17T10:14:56.216Z,0.90
2023-01-17T10:18:28.827Z,1.10
2023-01-17T10:21:59.078Z,0.80
2023-01-17T10:25:29.951Z,0.95
2023-01-17T10:28:39.969Z,1.00
2023-01-17T10:31:53.685Z,0.90
2023-01-17T10:35:02.132Z,1.20
2023-01-17T10:38:11.982Z,1.10
2023-01-17T10:41:34.275Z,1.00
2023-01-17T10:44:50.851Z,0.90
2023-01-17T10:48:16.642Z,1.10
2023-01-17T10:51:43.104Z,0.82
2023-01-17T10:55:04.975Z,1.08
2023-01-17T10:58:13.078Z,0.95
2023-01-17T11:01:20.584Z,0.75
2023-01-17T11:04:34.996Z,1.23
2023-01-17T11:07:40.188Z,0.70
2023-01-17T11:10:48.781Z,1.20
2023-01-17T11:13:54.785Z,0.98
2023-01-17T11:17:04.495Z,1.08
2023-01-17T11:20:17.552Z,1.08
2023-01-17T11:23:26.239Z,0.90
2023-01-17T11:26:33.126Z,0.80
2023-01-17T11:29:39.604Z,1.05
2023-01-17T11:32:56.068Z,1.08
2023-01-17T11:36:00.113Z,1.10
2023-01-17T11:39:07.129Z,1.10
2023-01-17T11:42:35.497Z,0.88
2023-01-17T11:45:40.831Z,1.17
2023-01-17T11:48:55.973Z,1.10
2023-01-17T11:52:02.503Z,1.17
2023-01-17T11:55:07.088Z,1.10
2023-01-17T11:58:15.015Z,1.00
2023-01-17T12:01:42.567Z,1.10
2023-01-17T12:05:03.452Z,0.88
2023-01-17T12:08:30.364Z,1.55
2023-01-17T12:12:09.479Z,1.00
2023-01-17T12:15:16.678Z,0.90
2023-01-17T12:18:35.953Z,0.70
2023-01-17T12:21:43.159Z,0.57
2023-01-17T12:25:20.867Z,0.70
2023-01-17T12:28:44.696Z,0.80
2023-01-17T12:35:25.782Z,0.90
2023-01-17T12:38:39.144Z,0.82
2023-01-17T12:41:58.771Z,0.63
2023-01-17T12:45:09.735Z,0.90
2023-01-17T12:48:19.804Z,0.90
2023-01-17T12:51:43.440Z,0.80
2023-01-17T12:54:56.911Z,0.70
2023-01-17T12:58:06.248Z,0.75
2023-01-17T13:01:29.797Z,1.00
2023-01-17T13:04:57.426Z,0.75
2023-01-17T13:08:43.694Z,0.77
2023-01-17T13:11:56.785Z,1.10
2023-01-17T13:15:02.940Z,0.95
2023-01-17T13:18:14.441Z,1.00
2023-01-17T13:21:36.541Z,0.98
2023-01-17T13:25:03.163Z,1.10
2023-01-17T13:28:37.842Z,0.98
2023-01-17T13:31:50.518Z,1.00
2023-01-17T13:35:19.288Z,0.82
2023-01-17T13:38:44.649Z,1.20
2023-01-17T13:41:58.259Z,1.00
2023-01-17T13:45:08.339Z,0.95
2023-01-17T13:48:12.319Z,0.93
2023-01-17T13:51:19.685Z,1.10
2023-01-17T13:54:33.938Z,1.10
2023-01-17T13:57:43.519Z,0.95
2023-01-17T14:00:49.394Z,1.30
2023-01-17T14:03:53.552Z,1.00
2023-01-17T14:07:01.116Z,0.95
2023-01-17T14:10:32.316Z,0.82
2023-01-17T14:13:40.237Z,0.90
2023-01-17T14:16:46.252Z,0.90
2023-01-17T14:19:52.508Z,0.90
2023-01-17T14:23:02.285Z,0.70
2023-01-17T14:26:59.319Z,0.77
2023-01-17T14:30:06.997Z,0.80
2023-01-17T14:33:18.413Z,1.00
2023-01-17T14:36:27.796Z,0.77
2023-01-17T14:39:31.847Z,0.75
2023-01-17T14:42:36.057Z,0.95
2023-01-17T14:45:42.037Z,0.80
2023-01-17T14:48:46.130Z,1.10
2023-01-17T14:52:00.911Z,1.10
2023-01-17T14:55:15.404Z,1.17
2023-01-17T14:58:21.664Z,1.17
2023-01-17T15:01:25.569Z,1.10
2023-01-17T15:04:35.411Z,0.93
2023-01-17T15:07:39.734Z,0.90
2023-01-17T15:10:49.770Z,0.90
2023-01-17T15:13:57.448Z,2.10
2023-01-17T15:17:18.660Z,1.15
2023-01-17T15:20:23.658Z,1.08
2023-01-17T15:23:33.442Z,1.25
2023-01-17T15:26:42.339Z,0.82
2023-01-17T15:29:47.337Z,0.90
2023-01-17T15:32:51.644Z,0.77
2023-01-17T15:36:21.217Z,0.80
2023-01-17T15:39:31.917Z,0.70
2023-01-17T15:42:39.012Z,1.10
2023-01-17T15:45:55.360Z,1.08
2023-01-17T15:49:18.956Z,1.10
2023-01-17T15:52:22.968Z,1.20
2023-01-17T15:55:35.411Z,1.40
2023-01-17T15:58:39.503Z,1.23
2023-01-17T16:01:53.607Z,1.48
2023-01-17T16:05:02.151Z,1.83
2023-01-17T16:08:06.200Z,1.70
2023-01-17T16:11:11.703Z,1.90
2023-01-17T16:14:17.670Z,1.80
2023-01-17T16:17:22.121Z,1.50
2023-01-17T16:20:30.666Z,1.63
2023-01-17T16:23:34.456Z,1.42
2023-01-17T16:26:38.249Z,1.60
2023-01-17T16:29:42.146Z,1.92
2023-01-17T16:32:49.006Z,1.52
2023-01-17T16:35:54.380Z,1.50
2023-01-17T16:38:58.572Z,1.77
2023-01-17T16:42:02.998Z,1.73
2023-01-17T16:45:07.186Z,2.00
2023-01-17T16:48:12.333Z,2.58
2023-01-17T16:51:16.924Z,2.30
2023-01-17T16:54:20.950Z,1.67
2023-01-17T16:57:24.698Z,1.95
2023-01-17T17:00:28.771Z,2.10
2023-01-17T17:03:32.755Z,2.03
2023-01-17T17:06:37.069Z,1.90
2023-01-17T17:09:41.345Z,2.58
2023-01-17T17:12:46.384Z,2.08
2023-01-17T17:15:50.830Z,2.05
2023-01-17T17:18:57.306Z,2.08
2023-01-17T17:22:02.014Z,1.88
2023-01-17T17:25:07.135Z,1.98
2023-01-17T17:28:11.638Z,2.10
2023-01-17T17:31:15.700Z,2.00
2023-01-17T17:34:19.919Z,2.10
2023-01-17T17:37:23.901Z,2.15
2023-01-17T17:40:27.994Z,2.13
2023-01-17T17:43:38.200Z,2.10
2023-01-17T17:46:42.881Z,2.75
2023-01-17T17:49:46.803Z,3.20
2023-01-17T17:52:50.552Z,2.80
2023-01-17T17:55:54.472Z,3.50
2023-01-17T17:59:00.280Z,2.80
2023-01-17T18:02:10.511Z,2.85
2023-01-17T18:05:14.886Z,2.70
2023-01-17T18:08:18.971Z,2.90
2023-01-17T18:11:26.039Z,5.30
2023-01-17T18:14:30.657Z,4.95
2023-01-17T18:17:34.658Z,3.85
2023-01-17T18:20:38.718Z,3.80
2023-01-17T18:23:44.686Z,3.78
2023-01-17T18:26:50.219Z,4.68
2023-01-17T18:29:54.432Z,4.63
2023-01-17T18:32:58.473Z,4.53
2023-01-17T18:36:04.671Z,4.07
2023-01-17T18:39:15.198Z,3.95
2023-01-17T18:42:20.306Z,4.20
2023-01-17T18:45:24.856Z,3.50
2023-01-17T18:48:29.370Z,3.60
2023-01-17T18:51:34.698Z,4.25
2023-01-17T18:54:38.785Z,3.97
2023-01-17T18:57:42.979Z,4.10
2023-01-17T19:00:50.235Z,4.53
2023-01-17T19:03:57.675Z,4.28
2023-01-17T19:07:01.981Z,4.38
2023-01-17T19:10:06.561Z,3.97
2023-01-17T19:13:11.331Z,5.38
2023-01-17T19:16:19.801Z,4.50
2023-01-17T19:19:24.657Z,4.28
2023-01-17T19:22:28.873Z,4.05
2023-01-17T19:25:36.434Z,4.20
2023-01-17T19:28:42.615Z,4.00
2023-01-17T19:31:46.878Z,3.88
2023-01-17T19:34:51.081Z,4.20
2023-01-17T19:37:55.750Z,4.80
2023-01-17T19:41:17.817Z,4.20
2023-01-17T19:44:22.071Z,6.45
2023-01-17T19:47:26.213Z,6.05
2023-01-17T19:50:30.385Z,6.10
2023-01-17T19:53:35.961Z,5.13
2023-01-17T19:56:40.159Z,5.20
2023-01-17T19:59:44.307Z,5.25
2023-01-17T20:02:48.513Z,5.28
2023-01-17T20:05:56.522Z,5.20
2023-01-17T20:09:00.364Z,5.70
2023-01-17T20:12:04.705Z,5.40
2023-01-17T20:15:09.208Z,5.95
2023-01-17T20:18:13.864Z,5.22
2023-01-17T20:21:20.804Z,5.22
2023-01-17T20:24:24.777Z,5.47
2023-01-17T20:27:28.870Z,5.30
2023-01-17T20:30:34.506Z,5.97
2023-01-17T20:33:39.743Z,5.60
2023-01-17T20:36:44.546Z,5.80
2023-01-17T20:39:48.526Z,5.97
2023-01-17T20:42:52.477Z,6.20
2023-01-17T20:45:57.262Z,6.22
2023-01-17T20:49:07.563Z,6.35
2023-01-17T20:52:13.983Z,6.40
2023-01-17T20:55:19.480Z,6.40
2023-01-17T20:58:23.631Z,6.50
2023-01-17T21:01:27.928Z,5.97
2023-01-17T21:04:32.429Z,7.50
2023-01-17T21:07:37.212Z,8.13
2023-01-17T21:10:49.340Z,7.55
2023-01-17T21:13:53.622Z,9.00
2023-01-17T21:16:58.043Z,9.25
2023-01-17T21:20:06.624Z,8.40
2023-01-17T21:23:18.069Z,7.65
2023-01-17T21:26:23.000Z,7.57
2023-01-17T21:29:31.515Z,5.63
2023-01-17T21:32:35.396Z,5.10
2023-01-17T21:35:39.395Z,5.75
2023-01-17T21:38:43.587Z,5.93
2023-01-17T21:41:50.795Z,6.03
2023-01-17T21:44:55.781Z,6.38
2023-01-17T21:47:59.859Z,6.63
2023-01-17T21:51:07.910Z,6.80
2023-01-17T21:54:11.955Z,8.35
2023-01-17T21:57:37.525Z,7.60
2023-01-17T22:00:44.628Z,7.22
2023-01-17T22:03:59.616Z,6.93
2023-01-17T22:07:03.780Z,7.75
2023-01-17T22:10:08.365Z,8.23
2023-01-17T22:13:18.043Z,8.93
2023-01-17T22:16:23.530Z,8.18
2023-01-17T22:19:27.791Z,8.93
2023-01-17T22:22:32.800Z,8.32
2023-01-17T22:25:37.090Z,8.15
2023-01-17T22:28:42.418Z,8.27
2023-01-17T22:31:46.706Z,8.07
2023-01-17T22:34:50.666Z,7.63
2023-01-17T22:37:55.235Z,7.68
2023-01-17T22:41:10.253Z,7.68
2023-01-17T22:44:13.945Z,7.72
2023-01-17T22:47:17.591Z,7.45
2023-01-17T22:50:23.379Z,7.82
2023-01-17T22:53:28.238Z,7.30
2023-01-17T22:56:33.567Z,7.65
2023-01-17T22:59:37.641Z,7.32
2023-01-17T23:02:42.213Z,7.65
2023-01-17T23:05:46.721Z,7.47
2023-01-17T23:08:52.439Z,7.80
2023-01-17T23:11:56.344Z,7.30
2023-01-17T23:15:18.985Z,7.38
2023-01-17T23:18:41.661Z,7.68
2023-01-17T23:22:04.559Z,7.45
2023-01-17T23:25:11.935Z,7.57
2023-01-17T23:28:20.689Z,7.95
2023-01-17T23:31:24.903Z,7.50
2023-01-17T23:34:28.663Z,7.78
2023-01-17T23:37:51.327Z,8.15
2023-01-17T23:41:22.797Z,7.97
2023-01-17T23:44:31.606Z,7.75
2023-01-17T23:47:35.825Z,7.57
2023-01-17T23:50:42.272Z,7.82
2023-01-17T23:53:46.012Z,7.15
2023-01-17T23:56:50.177Z,7.22
2023-01-17T23:59:54.494Z,7.00
